Time;durP1;ratioP1;P1;durP2;ratioP2;P2;SDS_P1;SDS_P2;PMS_P1;PMS_P2;Temp;Humidity;BMP_temperature;BMP_pressure;BME280_temperature;BME280_humidity;BME280_pressure;Samples;Min_cycle;Max_cycle;Signal;HPM_P1;HPM_P2
2022/11/13 00:03:58;;;;;;;1.20;0.80;;;;;;;9.52;100.00;100967.35;1773731;78;22539;-51
2022/11/13 00:06:42;;;;;;;;;;;;;;;9.53;100.00;100982.07;1750757;80;21311;-52
2022/11/13 00:09:27;;;;;;;0.85;0.60;;;;;;;9.51;100.00;100975.87;1746044;80;22830;-49
2022/11/13 00:12:12;;;;;;;0.78;0.60;;;;;;;9.49;100.00;100972.33;1738669;80;21053;-50
2022/11/13 00:14:57;;;;;;;0.70;0.60;;;;;;;9.49;100.00;100974.56;1729656;80;21076;-49
2022/11/13 00:17:42;;;;;;;2.25;1.25;;;;;;;9.48;100.00;100970.10;1676168;83;21307;-49
2022/11/13 00:20:29;;;;;;;0.70;0.60;;;;;;;9.52;100.00;100967.35;1679127;82;21066;-50
2022/11/13 00:23:14;;;;;;;0.82;0.50;;;;;;;9.52;100.00;100964.20;1681502;82;22557;-49
2022/11/13 00:26:08;;;;;;;;;;;;;;;9.54;100.00;100968.17;1684396;82;21180;-49
2022/11/13 00:28:57;;;;;;;1.07;0.50;;;;;;;9.54;100.00;100959.65;1680487;82;21109;-50
2022/11/13 00:31:42;;;;;;;1.00;0.60;;;;;;;9.55;100.00;100958.73;1679865;82;21081;-51
2022/11/13 00:34:27;;;;;;;0.55;0.40;;;;;;;9.57;100.00;100966.30;1675952;82;21177;-49
2022/11/13 00:37:12;;;;;;;0.65;0.40;;;;;;;9.56;100.00;100964.53;1678644;82;22942;-49
2022/11/13 00:39:59;;;;;;;0.50;0.40;;;;;;;9.57;100.00;100963.62;1686491;82;21113;-51
2022/11/13 00:42:44;;;;;;;0.70;0.40;;;;;;;9.56;100.00;100963.19;1680609;82;21084;-52
2022/11/13 00:45:29;;;;;;;0.70;0.57;;;;;;;9.55;100.00;100957.84;1682972;82;21042;-51
2022/11/13 00:48:15;;;;;;;0.50;0.40;;;;;;;9.54;100.00;100954.27;1682614;82;21108;-49
2022/11/13 00:51:00;;;;;;;0.50;0.40;;;;;;;9.52;100.00;100957.48;1680561;82;21951;-50
2022/11/13 00:53:45;;;;;;;1.85;0.42;;;;;;;9.52;100.00;100953.91;1682345;82;21215;-50
2022/11/13 00:56:30;;;;;;;0.65;0.40;;;;;;;9.52;100.00;100949.42;1682365;82;22524;-50
2022/11/13 00:59:15;;;;;;;;;;;;;;;9.50;100.00;100944.53;1680462;82;21142;-50
2022/11/13 01:02:00;;;;;;;0.42;0.40;;;;;;;9.49;100.00;100946.34;1677811;82;20866;-50
2022/11/13 01:04:45;;;;;;;1.25;0.40;;;;;;;9.48;100.00;100934.28;1674458;83;21720;-50
2022/11/13 01:07:30;;;;;;;0.60;0.40;;;;;;;9.47;100.00;100930.70;1673852;83;21108;-50
2022/11/13 01:10:17;;;;;;;0.50;0.40;;;;;;;9.47;100.00;100923.98;1676546;83;21748;-50
2022/11/13 01:13:02;;;;;;;0.70;0.47;;;;;;;9.47;100.00;100928.47;1675923;83;21088;-50
2022/11/13 01:15:48;;;;;;;1.87;0.50;;;;;;;9.46;100.00;100928.94;1672729;83;21072;-50
2022/11/13 01:18:34;;;;;;;0.50;0.40;;;;;;;9.44;100.00;100925.39;1670693;83;21841;-50
2022/11/13 01:21:23;;;;;;;0.68;0.50;;;;;;;9.43;100.00;100930.38;1671954;83;21116;-49
2022/11/13 01:24:09;;;;;;;0.75;0.50;;;;;;;9.42;100.00;100935.33;1673344;83;21562;-50
2022/11/13 01:26:56;;;;;;;0.70;0.50;;;;;;;9.41;100.00;100929.98;1674972;83;21510;-49
2022/11/13 01:29:41;;;;;;;0.60;0.40;;;;;;;9.40;100.00;100924.18;1674290;83;21585;-49
2022/11/13 01:32:26;;;;;;;0.62;0.40;;;;;;;9.40;100.00;100921.49;1675664;83;21827;-49
2022/11/13 01:35:11;;;;;;;;;;;;;;;9.40;100.00;100924.18;1678560;83;21153;-51
2022/11/13 01:37:56;;;;;;;0.53;0.40;;;;;;;9.39;100.00;100919.27;1673100;83;20265;-49
2022/11/13 01:40:46;;;;;;;0.60;0.35;;;;;;;9.38;100.00;100924.22;1674763;83;21698;-50
2022/11/13 01:43:34;;;;;;;0.30;0.30;;;;;;;9.36;100.00;100923.81;1676447;83;21141;-49
2022/11/13 01:46:26;;;;;;;0.75;0.40;;;;;;;9.35;100.00;100931.03;1674507;83;21826;-49
2022/11/13 01:49:34;;;;;;;1.30;0.40;;;;;;;9.34;100.00;100928.37;1675683;83;21080;-51
2022/11/13 01:52:26;;;;;;;1.25;0.40;;;;;;;9.35;100.00;100927.45;1674314;83;21069;-51
2022/11/13 01:55:13;;;;;;;0.30;0.30;;;;;;;9.35;100.00;100924.77;1674345;83;21104;-50
2022/11/13 01:57:59;;;;;;;0.50;0.30;;;;;;;9.35;100.00;100916.70;1672982;83;21069;-51
2022/11/13 02:00:46;;;;;;;1.25;0.33;;;;;;;9.34;100.00;100911.80;1675745;83;21774;-50
2022/11/13 02:03:31;;;;;;;;;;;;;;;9.35;100.00;100909.98;1674425;83;21073;-50
2022/11/13 02:06:18;;;;;;;1.20;0.33;;;;;;;9.36;100.00;100913.95;1672294;83;21101;-50
2022/11/13 02:09:03;;;;;;;1.12;0.40;;;;;;;9.35;100.00;100915.36;1675150;83;21552;-50
2022/11/13 02:13:32;;;;;;;0.40;0.40;;;;;;;9.38;100.00;100895.11;1791235;78;22551;-49
2022/11/13 02:16:17;;;;;;;;;;;;;;;9.38;100.00;100906.75;1755634;80;21057;-49
2022/11/13 02:19:13;;;;;;;1.30;0.37;;;;;;;9.38;100.00;100912.58;1741103;80;21808;-49
2022/11/13 02:22:29;;;;;;;0.40;0.30;;;;;;;9.36;100.00;100909.92;1745229;80;21602;-50
2022/11/13 02:25:14;;;;;;;5.10;0.35;;;;;;;9.34;100.00;100904.19;1742140;80;21080;-49
2022/11/13 02:28:00;;;;;;;0.37;0.30;;;;;;;9.33;100.00;100915.39;1741780;80;21046;-50
2022/11/13 02:30:47;;;;;;;0.50;0.40;;;;;;;9.33;100.00;100911.83;1742722;80;21041;-50
2022/11/13 02:33:32;;;;;;;;;;;;;;;9.34;100.00;100910.91;1743831;80;21919;-50
2022/11/13 02:36:17;;;;;;;0.42;0.30;;;;;;;9.32;100.00;100912.73;1712379;81;20186;-50
2022/11/13 02:39:07;;;;;;;0.50;0.37;;;;;;;9.31;100.00;100917.23;1694592;83;21611;-50
2022/11/13 02:41:52;;;;;;;0.45;0.30;;;;;;;9.31;100.00;100917.23;1706216;81;21072;-50
2022/11/13 02:44:37;;;;;;;0.47;0.40;;;;;;;9.32;100.00;100911.40;1689763;83;21637;-49
2022/11/13 02:47:22;;;;;;;0.55;0.35;;;;;;;9.33;100.00;100919.88;1707283;81;22695;-49
2022/11/13 02:50:09;;;;;;;0.40;0.40;;;;;;;9.33;100.00;100915.39;1690544;83;21066;-49
2022/11/13 02:52:53;;;;;;;0.75;0.40;;;;;;;9.33;100.00;100912.70;1684486;83;21143;-50
2022/11/13 02:55:40;;;;;;;1.20;0.30;;;;;;;9.34;100.00;100913.13;1691849;83;21097;-49
2022/11/13 02:58:25;;;;;;;1.25;0.40;;;;;;;9.35;100.00;100921.63;1701129;82;26409;-49
2022/11/13 03:01:10;;;;;;;0.35;0.30;;;;;;;9.36;100.00;100922.48;1700598;82;21833;-50
2022/11/13 03:03:55;;;;;;;0.30;0.30;;;;;;;9.35;100.00;100932.83;1701408;82;21143;-50
2022/11/13 03:06:40;;;;;;;0.30;0.30;;;;;;;9.32;100.00;100931.09;1704978;82;21376;-49
2022/11/13 03:09:25;;;;;;;0.50;0.40;;;;;;;9.33;100.00;100934.20;1699473;82;21528;-49
2022/11/13 03:12:10;;;;;;;0.30;0.30;;;;;;;9.35;100.00;100932.83;1699730;82;21085;-48
2022/11/13 03:14:57;;;;;;;2.10;0.35;;;;;;;9.37;100.00;100935.88;1693676;83;21888;-51
2022/11/13 03:17:42;;;;;;;;;;;;;;;9.38;100.00;100932.27;1691857;84;21093;-49
2022/11/13 03:20:26;;;;;;;1.20;0.40;;;;;;;9.38;100.00;100930.05;1689428;84;20259;-48
2022/11/13 03:23:12;;;;;;;0.30;0.30;;;;;;;9.38;100.00;100938.99;1735983;80;21582;-49
2022/11/13 03:26:06;;;;;;;3.08;0.37;;;;;;;9.39;100.00;100927.78;1734691;80;21042;-48
2022/11/13 03:28:50;;;;;;;0.30;0.30;;;;;;;9.38;100.00;100924.67;1734537;80;22316;-48
2022/11/13 03:31:36;;;;;;;3.25;0.50;;;;;;;9.37;100.00;100922.44;1731306;80;21152;-48
2022/11/13 03:34:21;;;;;;;0.30;0.30;;;;;;;9.37;100.00;100926.93;1736865;80;21065;-47
2022/11/13 03:37:06;;;;;;;0.60;0.50;;;;;;;9.38;100.00;100921.98;1732560;80;21526;-49
2022/11/13 03:39:51;;;;;;;0.30;0.30;;;;;;;9.36;100.00;100925.16;1732578;80;21062;-50
2022/11/13 03:42:36;;;;;;;2.02;0.30;;;;;;;9.35;100.00;100919.39;1736966;80;21840;-50
2022/11/13 03:45:21;;;;;;;1.57;0.23;;;;;;;9.34;100.00;100928.37;1732905;80;21061;-50
2022/11/13 03:48:06;;;;;;;;;;;;;;;9.35;100.00;100931.48;1735629;80;21037;-50
2022/11/13 03:50:54;;;;;;;1.15;0.50;;;;;;;9.34;100.00;100930.60;1733022;80;21023;-50
2022/11/13 03:53:38;;;;;;;0.40;0.30;;;;;;;9.33;100.00;100930.63;1732581;80;21076;-49
2022/11/13 03:56:24;;;;;;;0.90;0.50;;;;;;;9.32;100.00;100925.72;1697853;82;23911;-50
2022/11/13 03:59:09;;;;;;;1.20;0.50;;;;;;;9.32;100.00;100932.89;1731877;80;21075;-50
2022/11/13 04:01:55;;;;;;;1.05;0.40;;;;;;;9.31;100.00;100933.35;1732120;80;21078;-49
2022/11/13 04:04:40;;;;;;;0.50;0.40;;;;;;;9.30;100.00;100938.75;1730279;80;22392;-49
2022/11/13 04:07:25;;;;;;;0.40;0.40;;;;;;;9.27;100.00;100936.17;1730424;80;22418;-49
2022/11/13 04:10:10;;;;;;;;;;;;;;;9.26;100.00;100935.28;1733168;80;21828;-50
2022/11/13 04:12:55;;;;;;;1.20;0.40;;;;;;;9.28;100.00;100933.88;1734799;80;20177;-49
2022/11/13 04:15:41;;;;;;;1.05;0.30;;;;;;;9.27;100.00;100933.48;1729038;80;21076;-49
2022/11/13 04:18:26;;;;;;;1.47;0.30;;;;;;;9.27;100.00;100937.51;1726770;80;21078;-49
2022/11/13 04:21:12;;;;;;;0.93;0.45;;;;;;;9.26;100.00;100937.08;1726771;80;21141;-49
2022/11/13 04:23:57;;;;;;;0.40;0.30;;;;;;;9.26;100.00;100942.45;1725415;80;21906;-50
2022/11/13 04:26:42;;;;;;;0.40;0.30;;;;;;;9.24;100.00;100942.48;1737954;80;21093;-49
2022/11/13 04:29:27;;;;;;;0.93;0.30;;;;;;;9.25;100.00;100938.88;1732826;80;21054;-49
2022/11/13 04:32:12;;;;;;;;;;;;;;;9.24;100.00;100931.73;1734874;80;21085;-50
2022/11/13 04:34:58;;;;;;;0.40;0.30;;;;;;;9.23;100.00;100930.42;1731179;80;20724;-49
2022/11/13 04:37:44;;;;;;;0.20;0.20;;;;;;;9.22;100.00;100928.66;1725576;80;21829;-50
2022/11/13 04:40:29;;;;;;;1.10;0.30;;;;;;;9.19;100.00;100933.62;1729209;80;21022;-49
2022/11/13 04:43:14;;;;;;;0.57;0.30;;;;;;;9.19;100.00;100931.41;1733171;80;21049;-50
2022/11/13 04:45:59;;;;;;;0.40;0.30;;;;;;;9.20;100.00;100930.48;1720038;80;21130;-49
2022/11/13 04:48:44;;;;;;;0.30;0.20;;;;;;;9.19;100.00;100926.91;1729788;80;21678;-49
2022/11/13 04:51:29;;;;;;;;;;;;;;;9.21;100.00;100927.77;1724869;80;21947;-50
2022/11/13 04:54:14;;;;;;;0.30;0.30;;;;;;;9.20;100.00;100930.48;1726046;80;21488;-49
2022/11/13 04:57:00;;;;;;;0.37;0.25;;;;;;;9.19;100.00;100935.44;1720374;80;21089;-50
2022/11/13 04:59:44;;;;;;;2.83;0.30;;;;;;;9.21;100.00;100942.55;1725899;80;21030;-49
2022/11/13 05:02:30;;;;;;;0.98;0.20;;;;;;;9.23;100.00;100938.48;1732262;80;21071;-50
2022/11/13 05:05:15;;;;;;;1.32;0.75;;;;;;;9.23;100.00;100938.48;1728905;80;21830;-51
2022/11/13 05:08:01;;;;;;;3.85;0.30;;;;;;;9.22;100.00;100945.66;1725610;80;21328;-50
2022/11/13 05:10:46;;;;;;;;;;;;;;;9.21;100.00;100954.64;1735964;80;21073;-50
2022/11/13 05:13:32;;;;;;;;;;;;;;;9.20;100.00;100958.23;1726406;80;20234;-49
2022/11/13 05:16:18;;;;;;;0.88;0.30;;;;;;;9.22;100.00;100967.61;1725501;80;20192;-49
2022/11/13 05:19:07;;;;;;;0.30;0.30;;;;;;;9.23;100.00;100955.95;1729710;80;21259;-50
2022/11/13 05:21:52;;;;;;;0.20;0.20;;;;;;;9.24;100.00;100960.41;1727474;80;21057;-49
2022/11/13 05:24:39;;;;;;;0.37;0.20;;;;;;;9.23;100.00;100966.69;1724151;80;21065;-50
2022/11/13 05:27:24;;;;;;;;;;;;;;;9.22;100.00;100968.50;1732589;80;21547;-50
2022/11/13 05:30:10;;;;;;;1.17;0.20;;;;;;;9.23;100.00;100972.06;1726610;80;20373;-49
2022/11/13 05:32:55;;;;;;;0.42;0.20;;;;;;;9.24;100.00;100967.12;1728206;80;22445;-50
2022/11/13 05:35:40;;;;;;;1.35;0.20;;;;;;;9.25;100.00;100962.18;1727640;80;21034;-50
2022/11/13 05:38:25;;;;;;;2.20;0.30;;;;;;;9.25;100.00;100959.03;1734218;80;21513;-50
2022/11/13 05:41:15;;;;;;;0.30;0.20;;;;;;;9.28;100.00;100968.80;1721504;80;21058;-50
2022/11/13 05:44:00;;;;;;;0.80;0.20;;;;;;;9.31;100.00;100967.39;1737203;80;21065;-49
2022/11/13 05:46:45;;;;;;;0.47;0.30;;;;;;;9.29;100.00;100963.39;1730112;80;21925;-50
2022/11/13 05:49:30;;;;;;;0.50;0.20;;;;;;;9.28;100.00;100964.31;1731727;80;21050;-50
2022/11/13 05:52:16;;;;;;;0.30;0.20;;;;;;;9.30;100.00;100964.28;1726401;80;21064;-49
2022/11/13 05:55:01;;;;;;;0.50;0.20;;;;;;;9.33;100.00;100969.59;1731091;80;21049;-49
2022/11/13 05:57:46;;;;;;;0.20;0.20;;;;;;;9.35;100.00;100969.99;1747366;80;21590;-50
2022/11/13 06:00:31;;;;;;;0.50;0.23;;;;;;;9.37;100.00;100967.23;1727729;80;22883;-50
2022/11/13 06:03:16;;;;;;;0.10;0.10;;;;;;;9.37;100.00;100972.16;1733394;80;21019;-49
2022/11/13 14:30:42;;;;;;;1.30;0.63;;;;;;;10.17;100.00;100850.85;1870458;75;23245;-51
2022/11/13 14:33:43;;;;;;;1.20;0.57;;;;;;;10.03;100.00;100879.94;1840949;77;21034;-51
2022/11/13 14:36:31;;;;;;;1.90;0.70;;;;;;;9.94;100.00;100876.16;1839530;76;21805;-51
2022/11/13 14:42:25;;;;;;;5.90;1.80;;;;;;;9.82;100.00;100860.34;1780858;76;73161;-74
2022/11/13 14:45:21;;;;;;;1.25;0.70;;;;;;;9.78;100.00;100873.47;1684254;81;21028;-75
2022/11/13 14:48:19;;;;;;;5.50;1.42;;;;;;;9.73;100.00;100878.06;1704401;81;21720;-75
2022/11/13 14:51:06;;;;;;;2.55;0.70;;;;;;;9.71;100.00;100882.14;1737703;80;21048;-74
2022/11/13 14:53:59;;;;;;;1.57;0.62;;;;;;;9.71;100.00;100878.56;1747939;79;21522;-75
2022/11/13 14:56:44;;;;;;;1.20;0.60;;;;;;;9.70;100.00;100880.83;1739940;79;21230;-74
2022/11/13 14:59:29;;;;;;;1.02;0.50;;;;;;;9.69;100.00;100880.44;1731299;80;21638;-74
2022/11/13 15:02:15;;;;;;;1.00;0.40;;;;;;;9.67;100.00;100884.97;1743230;80;21854;-75
2022/11/13 15:05:02;;;;;;;0.80;0.50;;;;;;;9.65;100.00;100890.38;1740061;79;21059;-75
2022/11/13 15:07:48;;;;;;;1.00;0.75;;;;;;;9.63;100.00;100885.49;1731834;80;21403;-75
2022/11/13 15:10:33;;;;;;;4.75;0.98;;;;;;;9.63;100.00;100884.61;1744653;79;21057;-76
2022/11/13 15:13:18;;;;;;;2.90;1.00;;;;;;;9.61;100.00;100884.64;1712343;80;21104;-81
2022/11/13 15:16:04;;;;;;;1.05;0.88;;;;;;;9.59;100.00;100885.17;1730273;79;21821;-79
2022/11/13 15:19:00;;;;;;;1.35;0.80;;;;;;;9.56;100.00;100887.05;1732531;80;21011;-80
2022/11/13 15:21:46;;;;;;;5.35;0.80;;;;;;;9.50;100.00;100884.06;1732529;80;21096;-79
2022/11/13 15:24:32;;;;;;;2.60;0.60;;;;;;;9.43;100.00;100894.55;1735482;79;21556;-78
2022/11/13 15:27:17;;;;;;;1.37;0.70;;;;;;;9.37;100.00;100891.55;1672078;83;27424;-79
2022/11/13 15:30:02;;;;;;;1.00;0.62;;;;;;;9.32;100.00;100881.38;1674629;83;23433;-81
2022/11/13 15:32:52;;;;;;;0.90;0.65;;;;;;;9.31;100.00;100885.45;1704956;82;21179;-79
2022/11/13 15:35:34;;;;;;;2.37;0.70;;;;;;;9.29;100.00;100888.63;1699356;82;21039;-80
2022/11/13 15:38:19;;;;;;;2.52;0.72;;;;;;;9.28;100.00;100882.83;1695493;82;21064;-79
2022/11/13 15:41:18;;;;;;;5.00;0.70;;;;;;;9.28;100.00;100881.02;1694589;82;21397;-78
2022/11/13 15:44:12;;;;;;;0.95;0.72;;;;;;;9.27;100.00;100881.09;1704222;81;22052;-80
2022/11/13 15:46:57;;;;;;;1.37;0.90;;;;;;;9.28;100.00;100888.20;1711035;82;21541;-79
2022/11/13 15:49:43;;;;;;;2.72;1.05;;;;;;;9.26;100.00;100890.06;1694054;81;21595;-80
2022/11/13 15:52:30;;;;;;;;;;;;;;;9.24;100.00;100886.53;1703634;82;21063;-81
2022/11/13 15:55:28;;;;;;;4.22;1.30;;;;;;;9.25;100.00;100885.61;1703065;82;20170;-79
2022/11/13 15:58:15;;;;;;;1.85;1.22;;;;;;;9.22;100.00;100888.36;1661417;84;21894;-82
2022/11/13 16:00:59;;;;;;;3.08;1.12;;;;;;;9.20;100.00;100888.84;1730543;80;21099;-82
2022/11/13 16:03:45;;;;;;;2.70;1.55;;;;;;;9.18;100.00;100892.06;1742924;80;21048;-81
2022/11/13 16:06:32;;;;;;;4.58;1.22;;;;;;;9.18;100.00;100892.06;1740893;79;21100;-80
2022/11/13 16:09:17;;;;;;;2.58;1.25;;;;;;;9.17;100.00;100891.63;1735330;80;21226;-80
2022/11/13 16:12:05;;;;;;;2.90;1.37;;;;;;;9.15;100.00;100886.75;1740507;79;21197;-80
2022/11/13 16:14:50;;;;;;;3.42;1.00;;;;;;;9.13;100.00;100883.20;1733570;79;21112;-82
2022/11/13 16:17:40;;;;;;;2.77;1.00;;;;;;;9.09;100.00;100894.05;1735648;79;21008;-81
2022/11/13 16:20:25;;;;;;;3.95;1.20;;;;;;;9.06;100.00;100890.55;1738987;79;22532;-81
2022/11/13 16:23:13;;;;;;;3.30;1.05;;;;;;;9.02;100.00;100887.03;1738302;79;21136;-81
2022/11/13 16:25:58;;;;;;;2.30;1.10;;;;;;;9.00;100.00;100888.90;1703305;81;21790;-81
2022/11/13 16:28:43;;;;;;;4.85;1.00;;;;;;;8.99;100.00;100891.16;1677894;82;21065;-79
2022/11/13 16:31:28;;;;;;;;;;;;;;;8.98;100.00;100898.78;1709699;81;21150;-79
2022/11/13 16:34:13;;;;;;;1.62;1.02;;;;;;;8.97;100.00;100895.67;1680814;82;20490;-80
2022/11/13 16:37:20;;;;;;;5.58;1.07;;;;;;;8.95;100.00;100892.13;1731304;80;21654;-81
2022/11/13 16:40:20;;;;;;;4.08;1.10;;;;;;;8.95;100.00;100895.27;1727636;80;22463;-82
2022/11/13 16:43:06;;;;;;;1.55;0.90;;;;;;;8.93;100.00;100894.45;1760882;79;22332;-81
2022/11/13 16:45:51;;;;;;;1.82;0.90;;;;;;;8.92;100.00;100896.25;1673018;82;21116;-79
2022/11/13 16:48:37;;;;;;;2.37;1.20;;;;;;;8.93;100.00;100899.83;1670817;83;21522;-79
2022/11/13 16:51:21;;;;;;;1.10;0.80;;;;;;;8.92;100.00;100900.28;1669753;83;22370;-77
2022/11/13 16:54:07;;;;;;;2.52;1.10;;;;;;;8.90;100.00;100898.08;1675387;83;22064;-80
2022/11/13 16:56:52;;;;;;;;;;;;;;;8.89;100.00;100899.00;1682458;82;21361;-78
2022/11/13 16:59:37;;;;;;;2.47;1.12;;;;;;;8.88;100.00;100894.55;1671957;83;20161;-78
2022/11/13 17:02:22;;;;;;;2.60;1.57;;;;;;;8.87;100.00;100896.80;1726264;80;21722;-79
2022/11/13 17:05:13;;;;;;;;;;;;;;;8.84;100.00;100901.37;1746508;80;21342;-79
2022/11/13 17:07:58;;;;;;;3.40;1.65;;;;;;;8.83;100.00;100903.63;1744258;79;22371;-79
2022/11/13 17:10:45;;;;;;;3.47;1.70;;;;;;;8.79;100.00;100912.20;1745272;79;21065;-80
2022/11/13 17:13:30;;;;;;;6.12;3.40;;;;;;;8.77;100.00;100912.69;1735237;79;22117;-80
2022/11/13 17:16:16;;;;;;;3.17;2.37;;;;;;;8.73;100.00;100909.20;1731179;79;21370;-81
2022/11/13 17:19:01;;;;;;;2.90;2.35;;;;;;;8.73;100.00;100919.06;1754743;79;21077;-82
2022/11/13 17:21:46;;;;;;;;;;;;;;;8.71;100.00;100919.09;1732452;80;23471;-79
2022/11/13 17:24:31;;;;;;;3.20;1.40;;;;;;;8.70;100.00;100918.66;1737046;79;20604;-81
2022/11/13 17:27:16;;;;;;;;;;;;;;;8.70;100.00;100920.45;1747916;79;21086;-80
2022/11/13 17:30:02;;;;;;;3.00;1.00;;;;;;;8.68;100.00;100922.28;1729351;80;20212;-79
2022/11/13 17:32:47;;;;;;;2.47;1.10;;;;;;;8.67;100.00;100918.75;1753907;80;21054;-78
2022/11/13 17:35:33;;;;;;;3.10;1.10;;;;;;;8.66;100.00;100913.41;1736604;80;21786;-80
2022/11/13 17:38:18;;;;;;;3.58;1.00;;;;;;;8.65;100.00;100912.52;1743622;79;21450;-78
2022/11/13 17:41:09;;;;;;;1.72;1.10;;;;;;;8.64;100.00;100921.48;1744583;80;21057;-80
2022/11/13 17:43:55;;;;;;;2.27;1.10;;;;;;;8.64;100.00;100916.12;1753273;80;21058;-78
2022/11/13 17:46:41;;;;;;;2.25;1.10;;;;;;;8.63;100.00;100920.17;1745187;79;21076;-80
2022/11/13 17:49:26;;;;;;;3.30;1.10;;;;;;;8.63;100.00;100922.86;1730346;80;22636;-80
2022/11/13 17:52:11;;;;;;;4.45;1.35;;;;;;;8.63;100.00;100925.54;1730558;79;21095;-78
2022/11/13 17:54:57;;;;;;;3.52;1.20;;;;;;;8.64;100.00;100921.94;1743534;80;21060;-80
2022/11/13 17:57:41;;;;;;;1.80;1.05;;;;;;;8.62;100.00;100920.63;1743533;79;22215;-79
2022/11/13 18:00:26;;;;;;;3.70;1.35;;;;;;;8.62;100.00;100930.02;1718477;80;22067;-78
2022/11/13 18:03:11;;;;;;;2.15;1.35;;;;;;;8.61;100.00;100928.25;1731152;80;21939;-81
2022/11/13 18:05:56;;;;;;;2.30;1.52;;;;;;;8.61;100.00;100925.56;1740447;79;21243;-80
2022/11/13 18:08:42;;;;;;;;;;;;;;;8.63;100.00;100926.88;1746493;80;21089;-80
2022/11/13 18:11:28;;;;;;;3.00;1.60;;;;;;;8.63;100.00;100923.74;1738820;79;20755;-80
2022/11/13 18:14:13;;;;;;;2.17;1.65;;;;;;;8.62;100.00;100926.45;1737388;80;21132;-80
2022/11/13 18:17:01;;;;;;;1.62;1.52;;;;;;;8.61;100.00;100925.56;1750435;80;21234;-80
2022/11/13 18:19:46;;;;;;;2.83;2.20;;;;;;;8.60;100.00;100930.96;1744925;79;21049;-79
2022/11/13 18:22:30;;;;;;;4.28;1.72;;;;;;;8.57;100.00;100931.05;1738778;79;21100;-81
2022/11/13 18:26:41;;;;;;;1.97;1.50;;;;;;;8.55;100.00;100927.51;1843049;74;22615;-48
2022/11/13 18:29:26;;;;;;;2.33;1.47;;;;;;;8.51;100.00;100936.52;1845981;75;21105;-49
2022/11/13 18:32:11;;;;;;;3.15;1.60;;;;;;;8.47;100.00;100926.78;1854300;75;21298;-49
2022/11/13 18:34:57;;;;;;;4.53;2.17;;;;;;;8.45;100.00;100946.05;1849962;75;21117;-50
2022/11/13 18:37:42;;;;;;;4.30;1.85;;;;;;;8.41;100.00;100937.66;1848120;75;21034;-48
2022/11/13 18:40:26;;;;;;;;;;;;;;;8.37;100.00;100934.59;1850553;75;21046;-49
2022/11/13 18:43:13;;;;;;;6.58;1.98;;;;;;;8.35;100.00;100944.89;1845687;75;20943;-48
2022/11/13 18:46:00;;;;;;;3.85;1.27;;;;;;;8.33;100.00;100945.41;1829815;76;22624;-49
2022/11/13 18:48:45;;;;;;;3.80;1.60;;;;;;;8.32;100.00;100937.38;1830768;76;21009;-49
2022/11/13 18:51:35;;;;;;;7.87;1.85;;;;;;;8.31;100.00;100945.89;1827043;76;20983;-48
2022/11/13 18:54:20;;;;;;;2.20;1.50;;;;;;;8.31;100.00;100940.98;1833804;76;21048;-51
2022/11/13 18:57:05;;;;;;;;;;;;;;;8.29;100.00;100939.63;1831895;76;21060;-48
2022/11/13 18:59:50;;;;;;;6.77;1.90;;;;;;;8.26;100.00;100941.02;1835728;76;21775;-48
2022/11/13 19:02:36;;;;;;;1.92;1.80;;;;;;;8.23;100.00;100935.73;1832879;76;21029;-49
2022/11/13 19:05:22;;;;;;;2.75;2.22;;;;;;;8.19;100.00;100934.02;1833396;76;21029;-49
2022/11/13 19:08:07;;;;;;;3.85;2.80;;;;;;;8.18;100.00;100924.20;1831429;76;21047;-50
2022/11/13 19:10:52;;;;;;;;;;;;;;;8.17;100.00;100918.86;1838513;77;21018;-49
2022/11/13 19:13:38;;;;;;;5.22;2.12;;;;;;;8.17;100.00;100930.47;1830569;76;21937;-49
2022/11/13 19:16:31;;;;;;;3.17;2.62;;;;;;;8.14;100.00;100931.89;1834846;76;21487;-50
2022/11/13 19:19:20;;;;;;;4.33;2.33;;;;;;;8.13;100.00;100927.44;1836744;76;21002;-49
2022/11/13 19:22:05;;;;;;;3.98;2.25;;;;;;;8.12;100.00;100931.03;1799238;78;21460;-50
2022/11/13 19:24:51;;;;;;;4.20;2.35;;;;;;;8.10;100.00;100929.28;1764282;79;21546;-49
2022/11/13 19:27:36;;;;;;;4.10;2.45;;;;;;;8.10;100.00;100935.53;1764374;80;21857;-49
2022/11/13 19:30:22;;;;;;;2.77;2.58;;;;;;;8.11;100.00;100932.40;1752148;81;21152;-48
2022/11/13 19:33:07;;;;;;;4.58;2.65;;;;;;;8.08;100.00;100931.98;1765152;80;21072;-49
2022/11/13 19:35:53;;;;;;;2.87;2.30;;;;;;;8.06;100.00;100930.27;1797617;79;21038;-50
2022/11/13 19:38:38;;;;;;;4.92;2.25;;;;;;;8.05;100.00;100931.19;1800703;78;21037;-50
2022/11/13 19:41:24;;;;;;;2.90;1.50;;;;;;;8.05;100.00;100929.39;1779420;79;22608;-50
2022/11/13 19:44:09;;;;;;;1.75;1.65;;;;;;;8.06;100.00;100927.59;1779016;79;21045;-50
2022/11/13 19:46:54;;;;;;;1.87;1.77;;;;;;;8.03;100.00;100931.20;1774236;79;21084;-49
2022/11/13 19:49:41;;;;;;;2.90;1.72;;;;;;;8.02;100.00;100930.78;1780811;79;21013;-50
2022/11/13 19:52:26;;;;;;;4.37;1.95;;;;;;;8.01;100.00;100931.69;1781910;79;21052;-49
2022/11/13 19:55:11;;;;;;;2.40;2.08;;;;;;;7.99;100.00;100942.44;1779791;79;22575;-49
2022/11/13 19:57:57;;;;;;;6.70;2.10;;;;;;;7.98;100.00;100933.11;1775613;79;21027;-49
2022/11/13 20:00:41;;;;;;;3.83;2.42;;;;;;;7.98;100.00;100937.12;1776826;79;21063;-49
2022/11/13 20:03:27;;;;;;;3.37;1.80;;;;;;;7.98;100.00;100933.99;1780405;79;21044;-51
2022/11/13 20:06:15;;;;;;;3.37;2.08;;;;;;;7.98;100.00;100931.77;1780698;79;21077;-49
2022/11/13 20:09:01;;;;;;;3.72;1.52;;;;;;;7.97;100.00;100939.38;1779911;79;21820;-49
2022/11/13 20:11:46;;;;;;;7.15;2.15;;;;;;;7.96;100.00;100937.15;1778544;79;21826;-50
2022/11/13 20:14:32;;;;;;;4.67;1.70;;;;;;;7.94;100.00;100934.95;1778603;79;21073;-50
2022/11/13 20:17:17;;;;;;;4.12;1.85;;;;;;;7.93;100.00;100934.52;1778347;79;21103;-51
2022/11/13 20:20:04;;;;;;;2.12;1.80;;;;;;;7.92;100.00;100923.81;1777378;79;21607;-49
2022/11/13 20:22:49;;;;;;;3.95;1.55;;;;;;;7.88;100.00;100926.14;1778271;79;21828;-50
2022/11/13 20:25:35;;;;;;;5.83;1.70;;;;;;;7.84;100.00;100927.09;1779225;79;21539;-50
2022/11/13 20:28:20;;;;;;;;;;;;;;;7.82;100.00;100926.27;1799346;78;21787;-50
2022/11/13 20:31:18;;;;;;;2.90;1.65;;;;;;;7.78;100.00;100921.86;1781340;79;20611;-50
2022/11/13 20:34:04;;;;;;;2.67;1.92;;;;;;;7.74;100.00;100920.16;1794613;78;21017;-50
2022/11/13 20:36:50;;;;;;;2.58;1.67;;;;;;;7.70;100.00;100926.02;1765061;79;23276;-50
2022/11/13 20:39:35;;;;;;;3.45;1.80;;;;;;;7.68;100.00;100926.95;1776806;79;21125;-49
2022/11/13 20:42:20;;;;;;;2.52;1.62;;;;;;;7.64;100.00;100923.91;1768010;79;21910;-50
2022/11/13 20:45:06;;;;;;;5.25;2.05;;;;;;;7.60;100.00;100921.73;1799534;78;21076;-49
2022/11/13 20:47:51;;;;;;;2.60;1.90;;;;;;;7.54;100.00;100922.73;1791235;78;21550;-49
2022/11/13 20:50:37;;;;;;;3.27;2.10;;;;;;;7.49;100.00;100921.91;1767723;79;21814;-50
2022/11/13 20:53:21;;;;;;;3.90;1.42;;;;;;;7.40;100.00;100928.76;1780441;79;24241;-50
2022/11/13 20:56:09;;;;;;;;;;;;;;;7.31;100.00;100923.59;1778468;79;21429;-50
2022/11/13 20:58:56;;;;;;;4.95;2.20;;;;;;;7.25;100.00;100920.98;1773455;79;20473;-50
2022/11/13 21:01:41;;;;;;;4.05;2.40;;;;;;;7.20;100.00;100924.20;1777662;79;21463;-50
2022/11/13 21:04:26;;;;;;;4.37;2.45;;;;;;;7.17;100.00;100926.91;1764069;79;21792;-50
2022/11/13 21:07:11;;;;;;;;;;;;;;;7.16;100.00;100919.78;1785842;79;21514;-50
2022/11/13 21:09:56;;;;;;;4.60;2.25;;;;;;;7.15;100.00;100922.91;1781663;79;20642;-51
2022/11/13 21:12:43;;;;;;;2.98;1.98;;;;;;;7.12;100.00;100911.39;1761126;79;21028;-50
2022/11/13 21:15:28;;;;;;;2.92;2.00;;;;;;;7.14;100.00;100909.58;1767147;79;21030;-51
2022/11/13 21:18:13;;;;;;;7.25;2.50;;;;;;;7.14;100.00;100906.45;1765373;79;23278;-51
2022/11/13 21:21:06;;;;;;;3.00;2.15;;;;;;;7.13;100.00;116433.64;1779599;79;21028;-51
